Time;durP1;ratioP1;P1;durP2;ratioP2;P2;SDS_P1;SDS_P2;PMS_P1;PMS_P2;Temp;Humidity;BMP_temperature;BMP_pressure;BME280_temperature;BME280_humidity;BME280_pressure;Samples;Min_cycle;Max_cycle;Signal;HPM_P1;HPM_P2
2023/04/01 00:01:44;;;;;;;1.10;0.50;;;;;;;11.81;80.21;97960.78;6232764;22;20171;-84
2023/04/01 00:04:11;;;;;;;1.97;0.60;;;;;;;11.86;80.73;97969.63;6226513;22;20226;-85
2023/04/01 00:06:38;;;;;;;0.87;0.40;;;;;;;11.86;80.42;97963.47;6209696;22;20172;-84
2023/04/01 00:09:04;;;;;;;2.60;0.57;;;;;;;11.77;80.72;97962.38;6226682;22;20169;-83
2023/04/01 00:11:32;;;;;;;1.83;0.70;;;;;;;11.76;81.29;97958.91;6245855;22;20183;-83
2023/04/01 00:14:01;;;;;;;2.83;0.50;;;;;;;11.60;81.90;97953.78;6227090;22;20192;-85
2023/04/01 00:16:28;;;;;;;1.57;0.60;;;;;;;11.71;81.46;97944.66;6221163;22;20180;-84
2023/04/01 00:18:55;;;;;;;1.70;0.50;;;;;;;11.81;80.82;97942.00;6232158;22;20191;-86
2023/04/01 00:21:22;;;;;;;2.00;0.50;;;;;;;11.82;81.02;97954.34;6258122;22;20167;-83
2023/04/01 00:23:50;;;;;;;1.17;0.53;;;;;;;11.88;80.50;97950.59;6230816;22;20195;-85
2023/04/01 00:26:20;;;;;;;1.23;0.40;;;;;;;11.68;80.89;97958.59;6258298;22;20168;-84
2023/04/01 00:28:47;;;;;;;1.27;0.60;;;;;;;11.82;81.01;97955.16;6230937;22;20251;-82
2023/04/01 00:31:14;;;;;;;0.90;0.57;;;;;;;11.90;80.44;97951.13;6258140;22;20195;-82
2023/04/01 00:33:41;;;;;;;1.97;0.40;;;;;;;11.78;80.72;97950.59;6233402;22;20187;-84
2023/04/01 00:36:17;;;;;;;2.13;0.53;;;;;;;11.78;80.74;97942.53;6227474;22;20598;-85
2023/04/01 00:38:44;;;;;;;1.63;0.60;;;;;;;11.81;80.71;97945.50;6251484;22;20164;-84
2023/04/01 00:41:14;;;;;;;0.63;0.40;;;;;;;11.81;80.34;97940.13;6258840;22;20170;-84
2023/04/01 00:43:43;;;;;;;1.43;0.60;;;;;;;11.84;80.45;97950.34;6258604;22;20184;-84
2023/04/01 00:46:10;;;;;;;1.03;0.50;;;;;;;11.66;80.99;97953.53;6257675;22;20167;-83
2023/04/01 00:48:39;;;;;;;1.37;0.60;;;;;;;11.59;81.63;97949.47;6232840;22;20163;-85
2023/04/01 00:51:17;;;;;;;1.37;0.40;;;;;;;11.61;81.42;97958.06;6258534;22;20156;-86
2023/04/01 00:53:48;;;;;;;1.40;0.57;;;;;;;11.60;81.61;97967.19;6257837;22;20207;-83
2023/04/01 00:56:18;;;;;;;1.43;0.50;;;;;;;11.59;81.65;97962.88;6233146;22;20160;-85
2023/04/01 00:58:52;;;;;;;3.90;0.60;;;;;;;11.45;82.02;97968.75;6233213;22;20513;-84
2023/04/01 01:01:20;;;;;;;1.53;0.67;;;;;;;11.51;81.89;97961.53;6233212;22;20249;-85
2023/04/01 01:03:47;;;;;;;1.80;0.70;;;;;;;11.45;82.67;97955.34;6232770;22;20247;-85
2023/04/01 01:06:23;;;;;;;2.83;0.60;;;;;;;11.45;82.68;97957.22;6232948;22;20247;-84
2023/04/01 01:09:09;;;;;;;1.67;0.50;;;;;;;11.52;82.18;97959.66;6283649;22;20156;-82
2023/04/01 01:11:54;;;;;;;1.97;0.50;;;;;;;11.77;81.49;97959.72;6258512;22;20164;-84
2023/04/01 01:14:33;;;;;;;3.53;0.60;;;;;;;11.61;82.05;97960.75;6258081;22;20187;-84
2023/04/01 01:17:07;;;;;;;1.40;0.57;;;;;;;11.43;81.91;97957.47;6257931;22;20241;-85
2023/04/01 01:19:47;;;;;;;2.03;0.53;;;;;;;11.41;82.22;97954.28;6232770;22;20230;-83
2023/04/01 01:22:45;;;;;;;1.20;0.50;;;;;;;11.40;82.92;97952.66;6252442;22;20164;-83
2023/04/01 01:25:11;;;;;;;2.80;0.60;;;;;;;11.45;82.51;97955.34;6252685;22;20171;-84
2023/04/01 01:27:39;;;;;;;1.60;0.60;;;;;;;11.32;83.49;97944.34;6283477;22;20167;-85
2023/04/01 01:30:21;;;;;;;1.50;0.50;;;;;;;11.29;83.61;97939.50;6227402;22;20673;-84
2023/04/01 01:32:52;;;;;;;1.53;0.50;;;;;;;11.44;82.62;97945.69;6304013;22;20258;-83
2023/04/01 01:35:39;;;;;;;2.13;0.70;;;;;;;11.49;81.87;97937.66;6258520;22;20172;-86
2023/04/01 01:38:16;;;;;;;1.30;0.43;;;;;;;11.45;82.07;97931.22;6229405;22;20172;-83
2023/04/01 01:40:54;;;;;;;1.43;0.53;;;;;;;11.42;82.05;97930.94;6235535;22;20173;-85
2023/04/01 01:43:25;;;;;;;1.83;0.60;;;;;;;11.48;81.80;97917.25;6227395;22;20169;-85
2023/04/01 01:45:57;;;;;;;3.23;0.80;;;;;;;11.44;82.03;97931.47;6230735;22;20642;-83
2023/04/01 01:48:25;;;;;;;1.70;0.50;;;;;;;11.40;82.90;97922.34;6232677;22;20239;-84
2023/04/01 01:50:52;;;;;;;0.73;0.40;;;;;;;11.29;82.78;97910.81;6230299;22;20164;-84
2023/04/01 01:53:20;;;;;;;1.97;0.60;;;;;;;11.27;83.05;97912.97;6227205;22;20635;-83
2023/04/01 01:55:47;;;;;;;1.53;0.63;;;;;;;11.31;83.03;97891.78;6257553;22;20172;-85
2023/04/01 01:58:21;;;;;;;1.37;0.60;;;;;;;11.32;83.79;97902.25;6233174;22;20175;-85
2023/04/01 02:00:55;;;;;;;2.60;0.60;;;;;;;11.28;83.67;97889.63;6255046;22;20200;-86
2023/04/01 02:03:25;;;;;;;2.30;0.60;;;;;;;11.24;84.35;97885.88;6227486;22;20164;-83
2023/04/01 02:05:54;;;;;;;1.70;0.77;;;;;;;11.18;84.46;97882.38;6230574;22;20611;-84
2023/04/01 02:08:26;;;;;;;1.43;0.60;;;;;;;11.20;84.24;97879.44;6227118;22;20222;-84
2023/04/01 02:10:59;;;;;;;2.30;0.60;;;;;;;11.15;84.82;97879.44;6229344;22;20202;-86
2023/04/01 02:13:38;;;;;;;1.50;0.67;;;;;;;11.07;84.59;97879.94;6258844;22;20197;-86
2023/04/01 02:16:12;;;;;;;1.57;0.50;;;;;;;11.07;85.14;97883.41;6227035;22;20277;-84
2023/04/01 02:18:40;;;;;;;2.93;0.80;;;;;;;11.06;85.57;97881.81;6252568;22;20618;-84
2023/04/01 02:21:07;;;;;;;2.40;0.70;;;;;;;10.99;85.82;97878.59;6252511;22;20590;-86
2023/04/01 02:23:35;;;;;;;1.57;0.67;;;;;;;10.98;85.98;97859.00;6226566;22;20187;-85
2023/04/01 02:26:05;;;;;;;1.47;0.50;;;;;;;11.08;85.28;97860.91;6232533;22;20229;-87
2023/04/01 02:28:37;;;;;;;1.93;0.60;;;;;;;11.04;84.82;97881.28;6233590;22;20210;-85
2023/04/01 02:31:04;;;;;;;2.67;0.50;;;;;;;10.92;85.68;97886.84;6232043;22;20656;-85
2023/04/01 02:33:31;;;;;;;1.90;0.70;;;;;;;11.03;85.50;97882.34;6257197;22;20187;-84
2023/04/01 02:35:58;;;;;;;2.40;0.60;;;;;;;10.92;85.97;97878.81;6257250;22;20168;-85
2023/04/01 02:38:25;;;;;;;2.73;0.57;;;;;;;10.82;86.89;97878.00;6231688;22;20225;-84
2023/04/01 02:40:57;;;;;;;1.07;0.60;;;;;;;10.82;86.61;97878.81;6232062;22;20610;-85
2023/04/01 02:43:24;;;;;;;2.40;0.67;;;;;;;10.79;86.67;97886.56;6226389;22;20164;-83
2023/04/01 02:45:51;;;;;;;1.83;0.70;;;;;;;10.79;86.61;97882.00;6227821;22;20217;-87
2023/04/01 02:48:18;;;;;;;1.83;0.63;;;;;;;11.03;85.42;97893.88;6232127;22;20267;-84
2023/04/01 02:50:45;;;;;;;3.73;0.90;;;;;;;11.06;84.88;97886.38;6232205;22;20213;-86
2023/04/01 02:53:12;;;;;;;1.33;0.53;;;;;;;10.96;85.25;97877.22;6227195;22;20192;-86
2023/04/01 02:55:39;;;;;;;1.77;0.70;;;;;;;11.03;85.06;97887.69;6227923;22;20171;-87
2023/04/01 02:58:06;;;;;;;1.70;0.50;;;;;;;10.91;85.91;97893.31;6226976;22;20187;-87
2023/04/01 03:00:33;;;;;;;2.57;0.80;;;;;;;10.96;86.04;97895.97;6226332;22;20251;-85
2023/04/01 03:03:00;;;;;;;1.60;0.60;;;;;;;10.93;86.26;97906.44;6257256;22;20172;-86
2023/04/01 03:05:27;;;;;;;2.73;0.50;;;;;;;10.88;86.44;97917.13;6226690;22;20168;-85
2023/04/01 03:07:56;;;;;;;2.93;0.80;;;;;;;10.94;86.24;97924.94;6228634;22;20255;-85
2023/04/01 03:10:23;;;;;;;1.60;0.50;;;;;;;10.86;86.74;97925.44;6226490;22;20160;-86
2023/04/01 03:12:49;;;;;;;1.97;0.60;;;;;;;10.84;86.42;97924.06;6229732;22;20221;-84
2023/04/01 03:15:17;;;;;;;2.50;0.70;;;;;;;10.89;86.32;97924.91;6232365;22;20170;-85
2023/04/01 03:17:44;;;;;;;1.93;0.60;;;;;;;10.88;86.08;97920.59;6253497;22;20198;-85
2023/04/01 03:20:11;;;;;;;2.20;0.60;;;;;;;10.91;86.01;97924.66;6257279;22;20205;-86
2023/04/01 03:22:38;;;;;;;1.53;0.50;;;;;;;11.00;85.65;97928.44;6257221;22;20265;-86
2023/04/01 03:25:09;;;;;;;1.23;0.60;;;;;;;10.99;86.03;97929.50;6227274;22;20180;-86
2023/04/01 03:27:37;;;;;;;2.90;0.70;;;;;;;10.92;86.33;97924.38;6222426;22;20164;-84
2023/04/01 03:30:05;;;;;;;1.70;0.73;;;;;;;10.85;87.19;97918.47;6231538;22;20187;-85
2023/04/01 03:32:38;;;;;;;0.47;0.30;;;;;;;10.75;87.43;97917.63;6234691;22;20202;-85
2023/04/01 03:35:05;;;;;;;1.37;0.50;;;;;;;10.79;87.10;97916.81;6256835;22;20187;-86
2023/04/01 03:37:32;;;;;;;0.73;0.50;;;;;;;10.82;87.39;97905.59;6231902;22;20202;-83
2023/04/01 03:39:59;;;;;;;2.57;0.57;;;;;;;10.81;86.89;97906.66;6231643;22;20172;-86
2023/04/01 03:42:26;;;;;;;2.00;0.53;;;;;;;10.71;87.58;97916.53;6226453;22;20168;-87
2023/04/01 03:44:53;;;;;;;1.50;0.40;;;;;;;10.75;87.42;97902.34;6253959;22;20167;-86
2023/04/01 03:47:20;;;;;;;1.37;0.57;;;;;;;10.73;87.68;97912.50;6232123;22;20167;-85
2023/04/01 03:49:46;;;;;;;1.27;0.60;;;;;;;10.68;87.85;97912.50;6252321;22;20172;-85
2023/04/01 03:52:13;;;;;;;1.73;0.50;;;;;;;10.61;87.59;97919.97;6243563;22;20164;-84
2023/04/01 03:54:40;;;;;;;1.83;0.50;;;;;;;10.63;87.72;97903.66;6224840;22;20200;-85
2023/04/01 03:57:07;;;;;;;1.63;0.50;;;;;;;10.64;87.82;97913.28;6233983;22;20251;-84
2023/04/01 03:59:34;;;;;;;1.73;0.53;;;;;;;10.69;87.61;97918.66;6228594;22;20195;-84
2023/04/01 04:02:01;;;;;;;0.80;0.40;;;;;;;10.67;87.88;97918.13;6221604;22;20534;-84
2023/04/01 04:04:29;;;;;;;1.73;0.50;;;;;;;10.68;87.47;97912.50;6228395;22;20176;-86
2023/04/01 04:06:56;;;;;;;1.90;0.50;;;;;;;10.50;88.17;97910.25;6257137;22;20231;-86
2023/04/01 04:09:27;;;;;;;1.53;0.30;;;;;;;10.57;88.34;97924.25;6233790;22;20164;-83
2023/04/01 04:11:54;;;;;;;1.00;0.50;;;;;;;10.57;88.19;97918.88;6258821;22;20167;-85
2023/04/01 04:14:20;;;;;;;2.03;0.40;;;;;;;10.46;88.60;97909.19;6258291;22;20196;-85
2023/04/01 04:16:48;;;;;;;1.00;0.40;;;;;;;10.51;88.04;97909.19;6252984;22;20168;-83
2023/04/01 04:19:14;;;;;;;1.00;0.43;;;;;;;10.46;88.23;97917.22;6233387;22;20190;-84
2023/04/01 04:21:41;;;;;;;1.30;0.37;;;;;;;10.35;89.00;97918.22;6258191;22;20245;-84
2023/04/01 04:24:09;;;;;;;1.73;0.50;;;;;;;10.53;88.48;97918.59;6233257;22;20196;-84
2023/04/01 04:26:56;;;;;;;1.00;0.40;;;;;;;10.39;88.45;97924.69;6267168;22;20171;-84
2023/04/01 04:29:23;;;;;;;1.33;0.30;;;;;;;10.33;89.01;97923.84;6228117;22;20178;-84
2023/04/01 04:31:50;;;;;;;2.13;0.60;;;;;;;10.41;88.83;97915.31;6251842;22;20226;-84
2023/04/01 04:34:18;;;;;;;1.77;0.43;;;;;;;10.44;88.67;97916.69;6258322;22;20187;-84
2023/04/01 04:36:45;;;;;;;1.77;0.60;;;;;;;10.45;88.64;97913.72;6233623;22;20190;-85
2023/04/01 04:39:12;;;;;;;1.10;0.40;;;;;;;10.33;88.59;97918.47;6233312;22;20164;-84
2023/04/01 04:41:41;;;;;;;1.13;0.50;;;;;;;10.23;89.50;97925.63;6234874;22;20168;-86
2023/04/01 04:44:08;;;;;;;1.70;0.57;;;;;;;10.29;89.46;97932.66;6258382;22;20171;-84
2023/04/01 04:46:35;;;;;;;0.70;0.30;;;;;;;10.34;89.55;97933.50;6258316;22;20178;-83
2023/04/01 04:49:12;;;;;;;1.07;0.40;;;;;;;10.43;89.21;97931.94;6263592;22;20164;-85
2023/04/01 04:51:39;;;;;;;1.43;0.57;;;;;;;10.30;89.42;97924.38;6228447;22;20176;-85
2023/04/01 04:54:07;;;;;;;1.70;0.40;;;;;;;10.59;88.96;97924.78;6228242;22;20192;-86
2023/04/01 04:57:00;;;;;;;2.13;0.57;;;;;;;10.45;89.42;97924.44;6262745;22;20229;-83
2023/04/01 04:59:31;;;;;;;1.93;0.50;;;;;;;10.46;89.10;97928.72;6231194;22;20160;-86
2023/04/01 05:02:04;;;;;;;1.23;0.50;;;;;;;10.56;89.07;97930.66;6259766;22;20174;-83
2023/04/01 05:04:35;;;;;;;1.43;0.40;;;;;;;10.62;88.75;97924.25;6228518;22;20557;-85
2023/04/01 05:07:03;;;;;;;1.27;0.50;;;;;;;10.60;89.22;97937.09;6216055;22;20164;-85
2023/04/01 05:09:31;;;;;;;1.03;0.60;;;;;;;10.84;88.21;97932.13;6209030;22;20188;-86
2023/04/01 05:11:58;;;;;;;1.17;0.40;;;;;;;10.81;88.29;97933.47;6257253;22;20518;-85
2023/04/01 05:14:30;;;;;;;0.87;0.43;;;;;;;10.73;88.33;97947.31;6247349;22;20192;-86
2023/04/01 05:17:04;;;;;;;1.83;0.40;;;;;;;10.93;88.31;97944.75;6246486;22;20639;-85
2023/04/01 05:19:31;;;;;;;0.90;0.40;;;;;;;11.03;87.64;97944.78;6233127;22;20175;-86
2023/04/01 05:21:58;;;;;;;1.57;0.40;;;;;;;11.23;87.14;97943.25;6233176;22;20171;-86
2023/04/01 05:24:25;;;;;;;1.60;0.50;;;;;;;11.30;86.71;97941.91;6227683;22;20172;-85
2023/04/01 05:26:52;;;;;;;1.07;0.30;;;;;;;11.47;86.49;97947.88;6280570;22;20168;-84
2023/04/01 05:29:23;;;;;;;0.57;0.27;;;;;;;11.38;86.39;97948.66;6253509;22;20165;-87
2023/04/01 05:31:55;;;;;;;0.60;0.30;;;;;;;11.49;85.97;97943.03;6231688;22;20200;-86
2023/04/01 05:34:22;;;;;;;1.80;0.40;;;;;;;11.65;85.94;97962.63;6232883;22;20197;-86
2023/04/01 05:36:50;;;;;;;0.70;0.50;;;;;;;11.69;85.62;97961.03;6230351;22;20610;-87
2023/04/01 05:39:16;;;;;;;0.90;0.40;;;;;;;11.83;85.41;97967.50;6243328;22;20172;-86
2023/04/01 05:41:44;;;;;;;0.70;0.27;;;;;;;11.88;85.11;97961.34;6226259;22;20255;-85
2023/04/01 05:44:12;;;;;;;0.73;0.30;;;;;;;11.89;84.96;97962.94;6227665;22;20622;-84
2023/04/01 05:46:39;;;;;;;0.87;0.30;;;;;;;11.97;84.62;97983.06;6249457;22;20218;-87
2023/04/01 05:49:15;;;;;;;0.33;0.23;;;;;;;12.36;83.70;97981.44;6260266;22;20167;-83
2023/04/01 05:51:42;;;;;;;1.23;0.30;;;;;;;12.59;82.76;97986.25;6232448;22;20186;-84
2023/04/01 05:54:09;;;;;;;2.17;0.87;;;;;;;12.65;82.48;97982.44;6226957;22;20238;-84
2023/04/01 05:56:37;;;;;;;1.00;0.30;;;;;;;12.89;82.22;97995.28;6247804;22;20240;-84
2023/04/01 05:59:03;;;;;;;0.50;0.20;;;;;;;13.06;80.36;97988.53;6232353;22;20171;-82
2023/04/01 06:01:32;;;;;;;1.00;0.40;;;;;;;13.07;80.84;97992.00;6226932;22;20192;-84
2023/04/01 06:03:59;;;;;;;0.60;0.27;;;;;;;13.13;80.02;97986.38;6232253;22;20160;-83
2023/04/01 06:06:28;;;;;;;1.17;0.30;;;;;;;13.19;79.37;97973.69;6257365;22;20191;-82
2023/04/01 06:09:23;;;;;;;0.87;0.20;;;;;;;13.35;79.05;97993.25;6235669;22;20213;-83
2023/04/01 06:12:37;;;;;;;0.50;0.30;;;;;;;13.43;79.04;97987.31;6233489;22;20195;-84
2023/04/01 06:15:22;;;;;;;0.47;0.30;;;;;;;13.25;78.09;97990.63;6226682;22;20179;-85
2023/04/01 06:18:15;;;;;;;0.80;0.30;;;;;;;13.51;78.10;97987.53;6303572;22;20607;-85
2023/04/01 06:21:19;;;;;;;0.70;0.27;;;;;;;13.54;76.58;97989.66;6282387;22;20168;-85
2023/04/01 06:24:00;;;;;;;1.53;0.60;;;;;;;13.65;77.04;97991.19;6257118;22;20182;-85
2023/04/01 06:26:53;;;;;;;1.23;0.40;;;;;;;13.63;77.17;97998.75;6232533;22;20160;-84
2023/04/01 06:29:32;;;;;;;1.10;0.50;;;;;;;13.40;76.41;97991.34;6282111;22;20214;-86
2023/04/01 06:32:21;;;;;;;2.20;0.57;;;;;;;13.67;76.16;97993.59;6256303;22;20218;-85
2023/04/01 06:35:13;;;;;;;1.10;0.40;;;;;;;13.65;76.26;97996.59;6232044;22;20187;-85
2023/04/01 06:38:08;;;;;;;1.40;0.40;;;;;;;13.86;75.59;97994.53;6252475;22;20164;-84
2023/04/01 06:40:50;;;;;;;0.97;0.50;;;;;;;13.96;76.00;98009.81;6282419;22;20232;-85
2023/04/01 06:43:33;;;;;;;1.27;0.60;;;;;;;14.25;75.49;97997.22;6251907;22;20160;-84
2023/04/01 06:46:22;;;;;;;0.83;0.40;;;;;;;14.37;74.87;98003.06;6286865;22;20180;-86
2023/04/01 06:49:49;;;;;;;1.10;0.50;;;;;;;14.37;74.67;98003.06;6263258;22;20170;-84
2023/04/01 06:53:00;;;;;;;1.00;0.40;;;;;;;13.85;74.13;98006.41;6166781;23;20565;-84
2023/04/01 06:56:11;;;;;;;1.20;0.40;;;;;;;14.12;74.28;98016.72;6185593;23;20187;-85
2023/04/01 06:59:13;;;;;;;1.60;0.40;;;;;;;14.41;73.69;98012.22;6265674;22;20196;-83
2023/04/01 07:01:52;;;;;;;0.70;0.30;;;;;;;14.66;74.61;98016.53;6227533;22;20158;-85
2023/04/01 07:04:28;;;;;;;0.60;0.40;;;;;;;14.72;72.49;98012.72;6231757;22;20172;-85
2023/04/01 07:07:04;;;;;;;1.20;0.50;;;;;;;14.89;71.90;98013.06;6282432;22;20650;-85
2023/04/01 07:09:36;;;;;;;1.40;0.47;;;;;;;14.85;71.44;98014.72;6257388;22;20164;-84
2023/04/01 07:12:33;;;;;;;1.80;0.50;;;;;;;15.23;71.42;98007.53;6257474;22;20167;-85
2023/04/01 07:15:21;;;;;;;1.13;0.50;;;;;;;14.82;69.57;97996.44;6287105;22;20183;-85
2023/04/01 07:17:53;;;;;;;1.33;0.50;;;;;;;14.94;69.79;98002.22;6229031;22;20167;-86
2023/04/01 07:20:31;;;;;;;1.13;0.47;;;;;;;14.91;70.56;98008.19;6232582;22;20179;-84
2023/04/01 07:23:02;;;;;;;1.77;0.43;;;;;;;14.98;70.33;98003.25;6232109;22;20188;-84
2023/04/01 07:25:59;;;;;;;1.33;0.70;;;;;;;15.25;70.77;98007.28;6245408;22;20200;-83
2023/04/01 07:28:56;;;;;;;1.10;0.50;;;;;;;14.99;69.77;97998.66;6230534;22;20168;-85
2023/04/01 07:31:56;;;;;;;0.67;0.40;;;;;;;14.47;71.39;98002.97;6259307;22;20209;-84
2023/04/01 07:34:52;;;;;;;2.90;0.57;;;;;;;14.41;70.71;97995.22;6231439;22;20184;-83
2023/04/01 07:37:28;;;;;;;1.00;0.50;;;;;;;14.24;71.31;97982.13;6204945;22;20175;-85
2023/04/01 07:40:10;;;;;;;2.33;0.50;;;;;;;14.18;71.58;97972.50;6280949;22;20240;-83
2023/04/01 07:43:09;;;;;;;0.97;0.37;;;;;;;14.05;72.11;97986.59;6257091;22;20210;-83
2023/04/01 07:46:08;;;;;;;1.90;0.40;;;;;;;14.10;70.72;97992.75;6282118;22;20163;-83
2023/04/01 07:48:52;;;;;;;1.77;0.30;;;;;;;14.13;70.61;97995.97;6282624;22;20174;-83
2023/04/01 07:51:47;;;;;;;0.77;0.30;;;;;;;14.02;70.95;98003.31;6232284;22;20164;-83
2023/04/01 07:54:23;;;;;;;2.20;0.50;;;;;;;14.20;70.34;98005.34;6221832;22;20202;-83
2023/04/01 07:57:15;;;;;;;0.40;0.30;;;;;;;14.06;70.66;97996.28;6232109;22;20611;-87
2023/04/01 08:00:09;;;;;;;0.73;0.23;;;;;;;14.15;70.25;97997.28;6234637;22;20161;-85
2023/04/01 08:03:09;;;;;;;0.43;0.30;;;;;;;14.23;70.72;97995.91;6239180;22;20195;-90
2023/04/01 08:06:07;;;;;;;2.50;0.70;;;;;;;14.52;70.70;98029.88;6283790;22;20165;-86
2023/04/01 08:08:49;;;;;;;1.10;0.80;;;;;;;14.57;69.92;98020.94;6232741;22;20213;-86
2023/04/01 08:12:05;;;;;;;2.00;0.80;;;;;;;14.61;69.28;98023.84;6310369;22;20507;-85
2023/04/01 08:14:59;;;;;;;1.43;0.67;;;;;;;14.69;69.61;98028.66;6265640;22;20188;-85
2023/04/01 08:18:10;;;;;;;1.90;0.60;;;;;;;14.72;67.97;98022.69;6248107;22;20180;-85
2023/04/01 08:20:48;;;;;;;0.90;0.50;;;;;;;14.82;67.75;98022.59;6227087;22;20248;-85
2023/04/01 08:23:18;;;;;;;0.30;0.30;;;;;;;14.98;67.86;98007.84;6257366;22;20191;-85
2023/04/01 08:25:54;;;;;;;1.30;0.40;;;;;;;15.02;67.48;98005.38;6231832;22;20165;-84
2023/04/01 08:28:34;;;;;;;0.83;0.20;;;;;;;14.87;67.77;98036.81;6227599;22;20262;-86
2023/04/01 08:31:13;;;;;;;0.20;0.20;;;;;;;15.03;67.30;98005.06;6276885;22;20259;-86
2023/04/01 08:33:44;;;;;;;0.20;0.20;;;;;;;14.93;66.83;98003.28;6253729;22;20166;-86
2023/04/01 08:36:19;;;;;;;1.87;0.40;;;;;;;15.01;67.21;97996.50;6232492;22;20198;-85
2023/04/01 08:39:14;;;;;;;0.47;0.20;;;;;;;15.16;66.78;97995.50;6237027;22;20199;-84
2023/04/01 08:41:59;;;;;;;0.93;0.30;;;;;;;15.18;67.43;98004.91;6259123;22;20164;-86
2023/04/01 08:45:06;;;;;;;0.93;0.40;;;;;;;15.36;67.39;98008.72;6261948;22;20220;-87
2023/04/01 08:47:42;;;;;;;0.73;0.30;;;;;;;15.31;66.91;98015.00;6253133;22;20492;-86
2023/04/01 08:50:29;;;;;;;2.73;0.30;;;;;;;15.21;66.15;98009.72;6279455;22;20169;-86
2023/04/01 08:53:29;;;;;;;0.20;0.20;;;;;;;15.14;66.23;98014.66;6278050;22;20162;-84
2023/04/01 08:56:03;;;;;;;0.30;0.20;;;;;;;15.12;67.15;98016.84;6231573;22;20208;-86
2023/04/01 08:58:52;;;;;;;0.30;0.20;;;;;;;15.10;66.15;98015.53;6283372;22;20169;-85
2023/04/01 09:01:44;;;;;;;0.20;0.20;;;;;;;15.12;66.00;98019.53;6252603;22;20218;-83
2023/04/01 09:04:45;;;;;;;0.20;0.20;;;;;;;15.11;65.92;98014.44;6303425;22;20168;-85
2023/04/01 09:07:49;;;;;;;0.37;0.30;;;;;;;15.20;66.35;98015.41;6283301;22;20189;-83
2023/04/01 09:10:28;;;;;;;0.93;0.30;;;;;;;15.35;66.52;98024.13;6250476;22;20572;-84
2023/04/01 09:13:15;;;;;;;0.50;0.20;;;;;;;15.42;66.35;98029.97;6259223;22;20164;-86
2023/04/01 09:16:07;;;;;;;0.57;0.20;;;;;;;15.66;65.23;98021.06;6254246;22;20258;-86
2023/04/01 09:18:55;;;;;;;0.70;0.40;;;;;;;15.87;65.65;98038.56;6253058;22;20614;-85
2023/04/01 09:21:44;;;;;;;0.30;0.20;;;;;;;15.67;65.01;98036.16;6258070;22;20166;-85
2023/04/01 09:24:34;;;;;;;0.53;0.20;;;;;;;15.47;64.86;98042.59;6258282;22;20190;-86
2023/04/01 09:27:01;;;;;;;0.23;0.20;;;;;;;16.12;65.48;98032.00;6233222;22;20666;-85
2023/04/01 09:29:44;;;;;;;0.23;0.23;;;;;;;16.13;65.72;98045.22;6258507;22;20165;-85
2023/04/01 09:32:42;;;;;;;0.67;0.20;;;;;;;16.32;63.44;98045.19;6258065;22;20202;-84
2023/04/01 09:35:39;;;;;;;0.20;0.20;;;;;;;16.07;63.30;98040.97;6236362;22;20190;-86
2023/04/01 09:38:28;;;;;;;0.20;0.20;;;;;;;15.83;63.79;98037.53;6258888;22;20158;-84
2023/04/01 09:40:58;;;;;;;1.63;0.30;;;;;;;15.80;62.15;98051.66;6231747;22;20234;-86
2023/04/01 09:44:09;;;;;;;0.23;0.20;;;;;;;16.08;62.47;98060.69;6244786;22;20181;-85
2023/04/01 09:51:32;;;;;;;0.40;0.30;;;;;;;15.07;62.96;98060.06;6310631;22;20183;-85
2023/04/01 09:54:12;;;;;;;0.17;0.17;;;;;;;15.09;62.92;98054.38;6232880;22;20627;-84
2023/04/01 09:57:18;;;;;;;0.33;0.30;;;;;;;15.29;63.50;98063.06;6257938;22;20268;-85
2023/04/01 10:00:26;;;;;;;0.20;0.20;;;;;;;15.31;63.39;98046.56;6260262;22;20165;-84
2023/04/01 10:03:36;;;;;;;0.30;0.30;;;;;;;15.88;62.13;98029.38;6235647;22;20526;-86
2023/04/01 10:06:23;;;;;;;0.70;0.50;;;;;;;16.61;60.75;98037.69;6258035;22;20200;-86
2023/04/01 10:09:20;;;;;;;0.60;0.30;;;;;;;16.89;59.84;98049.34;6257875;22;20195;-85
2023/04/01 10:11:55;;;;;;;0.30;0.30;;;;;;;16.91;59.34;98039.06;6254827;22;20171;-85
2023/04/01 10:14:33;;;;;;;0.30;0.20;;;;;;;16.45;59.88;98049.03;6252346;22;20178;-87
2023/04/01 10:17:16;;;;;;;1.00;0.40;;;;;;;16.35;60.83;98041.09;6282948;22;20193;-85
2023/04/01 10:19:54;;;;;;;0.57;0.20;;;;;;;16.43;60.41;98030.41;6282908;22;20613;-84
2023/04/01 10:22:34;;;;;;;0.33;0.20;;;;;;;16.92;59.85;98037.16;6227376;22;20170;-84
2023/04/01 10:25:38;;;;;;;0.20;0.20;;;;;;;17.23;57.95;98037.34;6253115;22;20174;-85
2023/04/01 10:28:47;;;;;;;0.33;0.20;;;;;;;17.66;56.48;98029.72;6277598;22;20168;-86
2023/04/01 10:31:41;;;;;;;0.23;0.23;;;;;;;18.33;55.91;98038.78;6251980;22;20526;-85
2023/04/01 10:34:26;;;;;;;1.70;0.40;;;;;;;18.59;54.92;98042.47;6240690;22;20164;-84
2023/04/01 10:36:56;;;;;;;0.60;0.40;;;;;;;18.28;55.03;98042.41;6250195;22;20173;-83
2023/04/01 10:40:14;;;;;;;0.60;0.30;;;;;;;18.04;54.77;98042.69;6228744;22;20487;-84
2023/04/01 10:43:43;;;;;;;0.30;0.30;;;;;;;17.54;53.98;98049.19;6247170;23;20169;-83
2023/04/01 10:46:49;;;;;;;0.30;0.20;;;;;;;17.20;56.43;98052.31;6245720;23;20273;-85
2023/04/01 10:49:23;;;;;;;0.20;0.20;;;;;;;17.56;55.38;98053.19;6252313;22;20498;-85
2023/04/01 10:52:17;;;;;;;0.30;0.13;;;;;;;17.79;55.17;98051.38;6253255;22;20167;-84
2023/04/01 10:55:44;;;;;;;0.20;0.20;;;;;;;17.83;54.51;98051.56;6234830;22;20238;-85
2023/04/01 10:59:15;;;;;;;0.20;0.20;;;;;;;18.04;54.50;98048.13;6235026;22;20173;-84
2023/04/01 11:02:35;;;;;;;0.60;0.30;;;;;;;18.82;53.86;98046.75;6255852;22;20207;-84
2023/04/01 11:05:58;;;;;;;1.17;0.20;;;;;;;19.44;52.25;98052.16;6255961;22;20215;-83
2023/04/01 11:08:47;;;;;;;0.40;0.30;;;;;;;19.52;52.53;98050.56;6252433;22;20161;-83
2023/04/01 11:11:25;;;;;;;0.30;0.13;;;;;;;19.45;51.71;98039.38;6251383;22;20255;-82
2023/04/01 11:14:26;;;;;;;1.63;0.20;;;;;;;19.29;50.60;98041.69;6226565;22;20164;-83
2023/04/01 11:17:11;;;;;;;1.03;0.20;;;;;;;19.00;50.45;98031.34;6226085;22;20192;-84
2023/04/01 11:20:00;;;;;;;2.03;0.30;;;;;;;19.08;49.98;98037.97;6226256;22;20192;-85
2023/04/01 11:22:53;;;;;;;0.50;0.30;;;;;;;18.69;49.78;98030.56;6251763;22;20668;-84
2023/04/01 11:25:44;;;;;;;0.47;0.27;;;;;;;19.12;49.41;98028.06;6251837;22;20159;-83
2023/04/01 11:29:02;;;;;;;0.60;0.37;;;;;;;19.07;49.68;98042.59;6255634;22;20168;-84
2023/04/01 11:31:52;;;;;;;0.30;0.20;;;;;;;18.56;49.92;98026.03;6251253;22;20203;-84
2023/04/01 11:34:48;;;;;;;0.30;0.20;;;;;;;17.80;50.64;98031.31;6251526;22;20251;-83
2023/04/01 11:37:48;;;;;;;0.20;0.20;;;;;;;17.85;51.37;98033.09;6252628;22;20164;-84
2023/04/01 11:40:58;;;;;;;1.23;0.30;;;;;;;17.92;51.07;98044.31;6228132;22;20172;-85
2023/04/01 11:44:11;;;;;;;0.53;0.17;;;;;;;18.30;50.86;98045.59;6169594;22;20183;-84
2023/04/01 11:47:14;;;;;;;0.37;0.30;;;;;;;18.09;51.10;98025.50;6227949;22;20176;-85
2023/04/01 11:49:59;;;;;;;0.30;0.30;;;;;;;18.04;51.87;98044.59;6251226;22;20195;-84
2023/04/01 11:52:53;;;;;;;0.40;0.20;;;;;;;18.01;51.51;98035.16;6277286;22;20164;-85
2023/04/01 11:55:42;;;;;;;0.40;0.30;;;;;;;18.60;50.92;98027.00;6250906;22;20191;-83
2023/04/01 11:58:21;;;;;;;0.27;0.23;;;;;;;18.70;49.78;98034.88;6276451;22;20168;-84
2023/04/01 12:01:06;;;;;;;0.33;0.20;;;;;;;18.51;50.11;98024.22;6251098;22;20160;-83
2023/04/01 12:03:51;;;;;;;0.20;0.10;;;;;;;18.28;49.98;98026.13;6251255;22;20243;-83
2023/04/01 12:06:30;;;;;;;1.00;0.30;;;;;;;18.25;49.72;98018.59;6226619;22;20161;-83
2023/04/01 12:09:29;;;;;;;0.30;0.30;;;;;;;18.45;49.90;98018.13;6225765;22;20659;-83
2023/04/01 12:12:18;;;;;;;0.20;0.20;;;;;;;18.22;49.88;98019.22;6203341;22;20172;-84
2023/04/01 12:14:58;;;;;;;0.30;0.30;;;;;;;18.85;49.49;98020.91;6278566;22;20175;-83
2023/04/01 12:17:30;;;;;;;1.27;0.30;;;;;;;19.56;49.01;98021.66;6227901;22;20159;-83
2023/04/01 12:20:12;;;;;;;0.30;0.20;;;;;;;19.31;48.08;98013.13;6227599;22;20169;-84
2023/04/01 12:23:01;;;;;;;0.57;0.33;;;;;;;19.41;48.29;98013.94;6252944;22;20165;-85
2023/04/01 12:25:47;;;;;;;0.47;0.30;;;;;;;19.68;48.37;98017.22;6252874;22;20171;-84
2023/04/01 12:28:17;;;;;;;0.20;0.20;;;;;;;19.23;47.14;98023.94;6252714;22;20169;-83
2023/04/01 12:31:05;;;;;;;0.23;0.20;;;;;;;18.85;47.32;98021.72;6278146;22;20196;-83
2023/04/01 12:34:13;;;;;;;0.40;0.27;;;;;;;18.81;47.94;98018.03;6228817;22;20184;-84
2023/04/01 12:37:17;;;;;;;0.70;0.30;;;;;;;18.50;48.09;98017.19;6227941;22;20263;-84
2023/04/01 12:39:56;;;;;;;0.30;0.30;;;;;;;18.25;48.86;98013.19;6217727;22;20164;-84